Bookmark and Share
Track history (hours):
 

Maysora

Last reported at 2014-Mar-28 03:07 UTC. Time now 2014-Apr-20 11:49 UTC.
Position N 01°18' E 103°39'.
Warning: this ship's position is 23 days out of date.

Length 195.7 m; beam 28.4 m; draft 10 m.

Type: Cargo ship. MMSI: 311042000.

NotesDate/timePositionNaut miles runAvg speedWind from/ knotsBaromVisibWave heightAir tempDewpointWater temp
2014-Mar-28 03:07N 01°18' E 103°39'0 0.5
2014-Mar-28 02:33N 01°18' E 103°39'5 5.3
2014-Mar-28 01:34N 01°13' E 103°40'2 2.2
2014-Mar-28 00:33N 01°11' E 103°42'0 0.2
2014-Mar-27 23:30N 01°11' E 103°42'0 0.0
2014-Mar-27 22:33N 01°11' E 103°42'0 0.1
2014-Mar-27 21:30N 01°11' E 103°42'0 0.1
2014-Mar-27 20:27N 01°11' E 103°42'0 0.0
2014-Mar-27 19:33N 01°11' E 103°42'0 0.0
2014-Mar-27 18:27N 01°11' E 103°42'0 0.0
2014-Mar-27 17:30N 01°11' E 103°42'0 0.1
2014-Mar-27 16:30N 01°11' E 103°42'0 0.0
2014-Mar-27 15:33N 01°11' E 103°42'0 0.0
2014-Mar-27 14:33N 01°11' E 103°42'0 0.1
2014-Mar-27 13:24N 01°11' E 103°42'0 0.0
2014-Mar-27 12:33N 01°11' E 103°42'0 0.1
2014-Mar-27 11:27N 01°11' E 103°42'0 0.0
2014-Mar-27 10:33N 01°11' E 103°42'0 0.0
2014-Mar-27 09:33N 01°11' E 103°42'0 0.2
2014-Mar-27 08:29N 01°11' E 103°42'0 0.1
2014-Mar-27 07:29N 01°11' E 103°42'4 3.9
2014-Mar-27 06:33N 01°12' E 103°38'3 3.3
2014-Mar-27 05:33N 01°13' E 103°35'6 5.6
2014-Mar-27 04:30N 01°11' E 103°30'0 0.3
2014-Mar-27 03:32N 01°10' E 103°30'0 0.4
2014-Mar-27 02:28N 01°10' E 103°30'  

Dump ship's entire track history

sailing weather and tide predictions

Maysora — C6RI4 — position and weather